createdAt,value
2022-10-02T00:00:11.266Z,14.85
2022-10-02T00:03:21.242Z,14.89
2022-10-02T00:06:26.084Z,14.79
2022-10-02T00:09:38.361Z,14.83
2022-10-02T00:12:39.758Z,14.87
2022-10-02T00:15:42.553Z,14.92
2022-10-02T00:18:45.840Z,14.94
2022-10-02T00:22:29.424Z,14.91
2022-10-02T00:25:55.353Z,14.84
2022-10-02T00:29:31.751Z,14.98
2022-10-02T00:32:42.321Z,14.94
2022-10-02T00:35:50.048Z,14.98
2022-10-02T00:39:20.556Z,15.00
2022-10-02T00:42:42.122Z,15.04
2022-10-02T00:46:06.668Z,14.98
2022-10-02T00:49:42.396Z,15.08
2022-10-02T00:52:55.926Z,15.11
2022-10-02T00:56:09.755Z,15.08
2022-10-02T00:59:20.593Z,15.12
2022-10-02T01:02:44.703Z,15.15
2022-10-02T01:05:46.253Z,15.16
2022-10-02T01:08:47.762Z,15.17
2022-10-02T01:11:49.802Z,15.22
2022-10-02T01:14:51.265Z,15.17
2022-10-02T01:17:53.349Z,15.14
2022-10-02T01:21:05.057Z,15.18
2022-10-02T01:24:25.176Z,15.19
2022-10-02T01:27:27.114Z,15.19
2022-10-02T01:30:30.473Z,15.21
2022-10-02T01:33:32.531Z,15.23
2022-10-02T01:36:34.340Z,15.15
2022-10-02T01:39:40.235Z,15.16
2022-10-02T01:42:41.627Z,15.11
2022-10-02T01:45:53.120Z,15.21
2022-10-02T01:49:13.455Z,15.24
2022-10-02T01:52:41.553Z,15.19
2022-10-02T01:55:54.034Z,15.05
2022-10-02T01:59:39.900Z,15.13
2022-10-02T02:02:47.056Z,15.20
2022-10-02T02:06:09.449Z,15.19
2022-10-02T02:09:26.946Z,15.16
2022-10-02T02:12:45.169Z,15.13
2022-10-02T02:15:58.642Z,15.17
2022-10-02T02:19:40.618Z,15.18
2022-10-02T02:22:46.680Z,15.18
2022-10-02T02:25:53.007Z,15.21
2022-10-02T02:29:00.684Z,15.20
2022-10-02T02:32:07.615Z,15.25
2022-10-02T02:35:22.394Z,15.31
2022-10-02T02:38:30.214Z,15.25
2022-10-02T02:41:41.996Z,15.25
2022-10-02T02:44:52.090Z,15.27
2022-10-02T02:47:56.241Z,15.25
2022-10-02T02:51:03.332Z,15.28
2022-10-02T02:54:12.712Z,15.27
2022-10-02T02:57:16.958Z,15.30
2022-10-02T03:00:20.019Z,15.29
2022-10-02T03:03:22.038Z,15.34
2022-10-02T03:06:31.962Z,15.35
2022-10-02T03:09:33.666Z,15.35
2022-10-02T03:13:13.453Z,15.40
2022-10-02T03:16:46.837Z,15.46
2022-10-02T03:20:08.111Z,15.43
2022-10-02T03:23:22.695Z,15.49
2022-10-02T03:26:37.384Z,15.46
2022-10-02T03:29:57.788Z,15.40
2022-10-02T03:33:01.039Z,15.46
2022-10-02T03:36:03.502Z,15.55
2022-10-02T03:39:24.593Z,15.54
2022-10-02T03:42:30.899Z,15.50
2022-10-02T03:45:50.515Z,15.54
2022-10-02T03:48:52.334Z,15.49
2022-10-02T03:51:53.743Z,15.42
2022-10-02T03:55:35.888Z,15.36
2022-10-02T03:58:43.276Z,15.19
2022-10-02T04:01:50.675Z,15.14
2022-10-02T04:05:05.944Z,15.13
2022-10-02T04:08:22.683Z,15.12
2022-10-02T04:11:38.602Z,15.11
2022-10-02T04:14:54.274Z,15.13
2022-10-02T04:18:02.556Z,15.07
2022-10-02T04:21:15.333Z,15.07
2022-10-02T04:24:39.039Z,15.07
2022-10-02T04:27:44.569Z,15.07
2022-10-02T04:30:45.996Z,15.19
2022-10-02T04:33:47.431Z,15.21
2022-10-02T04:37:36.528Z,15.19
2022-10-02T04:41:06.962Z,15.19
2022-10-02T04:44:30.664Z,15.23
2022-10-02T04:47:49.777Z,15.19
2022-10-02T04:51:03.523Z,15.08
2022-10-02T04:54:26.459Z,15.03
2022-10-02T04:58:04.327Z,15.01
2022-10-02T05:01:17.230Z,14.97
2022-10-02T05:04:43.483Z,14.96
2022-10-02T05:07:58.837Z,14.90
2022-10-02T05:11:30.884Z,14.87
2022-10-02T05:15:04.745Z,14.87
2022-10-02T05:18:34.729Z,14.81
2022-10-02T05:21:47.349Z,14.86
2022-10-02T05:25:07.205Z,14.95
2022-10-02T05:28:48.617Z,14.95
2022-10-02T05:32:21.617Z,14.97
2022-10-02T05:35:39.219Z,14.97
2022-10-02T05:38:59.394Z,14.97
2022-10-02T05:42:15.997Z,15.01
2022-10-02T05:45:32.877Z,14.99
2022-10-02T05:48:52.755Z,14.99
2022-10-02T05:52:01.979Z,15.03
2022-10-02T05:55:32.878Z,15.07
2022-10-02T05:58:45.892Z,15.07
2022-10-02T06:01:50.413Z,15.07
2022-10-02T06:05:00.611Z,15.09
2022-10-02T06:08:06.867Z,15.09
2022-10-02T06:11:30.357Z,15.05
2022-10-02T06:14:50.576Z,15.07
2022-10-02T06:18:04.338Z,15.13
2022-10-02T06:21:31.209Z,15.13
2022-10-02T06:24:47.060Z,15.09
2022-10-02T06:27:53.729Z,15.11
2022-10-02T06:31:02.392Z,15.22
2022-10-02T06:34:03.991Z,15.26
2022-10-02T06:37:26.076Z,15.32
2022-10-02T06:40:31.024Z,15.36
2022-10-02T06:44:10.231Z,15.41
2022-10-02T06:47:36.830Z,15.61
2022-10-02T06:51:05.356Z,15.63
2022-10-02T06:54:26.033Z,15.69
2022-10-02T06:57:48.425Z,15.75
2022-10-02T07:00:56.554Z,15.83
2022-10-02T07:04:20.101Z,15.87
2022-10-02T07:07:24.616Z,15.92
2022-10-02T07:10:46.291Z,15.91
2022-10-02T07:14:28.226Z,15.96
2022-10-02T07:17:57.269Z,15.96
2022-10-02T07:21:32.743Z,15.97
2022-10-02T07:24:58.193Z,16.01
2022-10-02T07:28:25.630Z,16.03
2022-10-02T07:31:42.553Z,16.08
2022-10-02T07:34:53.331Z,16.14
2022-10-02T07:38:13.392Z,16.18
2022-10-02T07:41:29.900Z,16.25
2022-10-02T07:44:55.925Z,16.30
2022-10-02T07:48:17.759Z,16.41
2022-10-02T07:51:59.370Z,16.57
2022-10-02T07:55:08.693Z,16.65
2022-10-02T07:58:15.605Z,16.64
2022-10-02T08:01:23.333Z,16.70
2022-10-02T08:04:36.863Z,16.72
2022-10-02T08:07:38.943Z,16.83
2022-10-02T08:10:44.168Z,16.82
2022-10-02T08:13:47.809Z,16.86
2022-10-02T08:16:51.955Z,16.94
2022-10-02T08:19:57.585Z,16.83
2022-10-02T08:23:13.684Z,16.91
2022-10-02T08:26:26.734Z,17.03
2022-10-02T08:29:40.248Z,17.17
2022-10-02T08:32:42.074Z,17.14
2022-10-02T08:36:02.683Z,17.15
2022-10-02T08:39:33.624Z,17.05
2022-10-02T08:42:56.843Z,17.13
2022-10-02T08:46:13.488Z,17.16
2022-10-02T08:49:52.490Z,17.16
2022-10-02T08:53:25.229Z,17.19
2022-10-02T08:56:41.846Z,17.19
2022-10-02T09:00:14.308Z,17.25
2022-10-02T09:03:37.129Z,17.60
2022-10-02T09:07:10.124Z,17.81
2022-10-02T09:10:37.653Z,17.79
2022-10-02T09:14:11.664Z,18.07
2022-10-02T09:17:37.224Z,18.05
2022-10-02T09:20:43.295Z,18.17
2022-10-02T09:23:58.465Z,18.10
2022-10-02T09:27:37.696Z,18.30
2022-10-02T09:31:03.700Z,18.30
2022-10-02T09:34:36.139Z,18.44
2022-10-02T09:38:29.654Z,18.33
2022-10-02T09:41:34.044Z,18.40
2022-10-02T09:45:01.599Z,18.36
2022-10-02T09:48:51.663Z,18.36
2022-10-02T09:52:23.655Z,18.40
2022-10-02T09:55:49.965Z,18.35
2022-10-02T09:59:22.545Z,18.32
2022-10-02T10:02:33.427Z,18.33
2022-10-02T10:05:39.207Z,18.45
2022-10-02T10:08:47.012Z,18.42
2022-10-02T10:12:12.293Z,18.40
2022-10-02T10:15:38.366Z,18.43
2022-10-02T10:18:42.848Z,18.48
2022-10-02T10:22:12.469Z,18.44
2022-10-02T10:25:52.649Z,18.39
2022-10-02T10:29:09.800Z,18.36
2022-10-02T10:32:48.872Z,18.23
2022-10-02T10:36:05.560Z,18.17
2022-10-02T10:39:34.598Z,18.10
2022-10-02T10:43:07.780Z,18.10
2022-10-02T10:46:24.231Z,17.94
2022-10-02T10:49:38.508Z,17.91
2022-10-02T10:52:39.841Z,17.96
2022-10-02T10:56:19.261Z,17.99
2022-10-02T10:59:48.732Z,17.88
2022-10-02T11:02:53.161Z,17.73
2022-10-02T11:06:51.190Z,17.62
2022-10-02T11:10:13.172Z,17.54
2022-10-02T11:13:30.122Z,17.52
2022-10-02T11:16:45.501Z,17.35
2022-10-02T11:20:29.913Z,17.42
2022-10-02T11:23:37.038Z,17.48
2022-10-02T11:27:03.948Z,17.43
2022-10-02T11:30:20.578Z,17.44
2022-10-02T11:33:54.290Z,17.41
2022-10-02T11:36:55.730Z,17.44
2022-10-02T11:40:16.255Z,17.50
2022-10-02T11:43:46.612Z,17.47
2022-10-02T11:47:11.369Z,17.44
2022-10-02T11:50:50.136Z,17.42
2022-10-02T11:54:30.129Z,17.35
2022-10-02T11:57:54.795Z,17.35
2022-10-02T12:01:07.901Z,17.24
2022-10-02T12:04:21.127Z,17.11
2022-10-02T12:07:22.527Z,17.13
2022-10-02T12:10:55.020Z,17.30
2022-10-02T12:14:02.938Z,17.39
2022-10-02T12:17:17.829Z,17.40
2022-10-02T12:21:14.925Z,17.52
2022-10-02T12:24:54.998Z,17.55
2022-10-02T12:28:20.077Z,17.57
2022-10-02T12:31:45.449Z,17.63
2022-10-02T12:35:03.333Z,17.65
2022-10-02T12:38:04.740Z,17.67
2022-10-02T12:41:42.415Z,17.74
2022-10-02T12:45:11.423Z,17.84
2022-10-02T12:48:23.194Z,17.79
2022-10-02T12:51:35.517Z,17.77
2022-10-02T12:55:14.213Z,17.59
2022-10-02T12:58:31.784Z,17.64
2022-10-02T13:01:58.374Z,17.72
2022-10-02T13:05:46.966Z,17.71
2022-10-02T13:09:15.631Z,17.62
2022-10-02T13:12:51.978Z,17.58
2022-10-02T13:16:31.108Z,17.62
2022-10-02T13:19:49.576Z,17.69
2022-10-02T13:23:06.059Z,17.66
2022-10-02T13:26:22.361Z,17.47
2022-10-02T13:29:52.377Z,17.62
2022-10-02T13:33:08.830Z,17.51
2022-10-02T13:36:36.044Z,17.69
2022-10-02T13:40:11.021Z,17.84
2022-10-02T13:43:22.145Z,17.83
2022-10-02T13:46:53.484Z,17.90
2022-10-02T13:49:57.653Z,17.92
2022-10-02T13:53:02.153Z,17.83
2022-10-02T13:56:36.565Z,17.80
2022-10-02T14:00:08.946Z,17.79
2022-10-02T14:03:42.583Z,17.81
2022-10-02T14:07:07.093Z,17.88
2022-10-02T14:10:34.235Z,17.91
2022-10-02T14:13:53.735Z,17.99
2022-10-02T14:17:05.928Z,18.06
2022-10-02T14:20:25.416Z,18.10
2022-10-02T14:23:48.579Z,18.12
2022-10-02T14:27:08.669Z,18.02
2022-10-02T14:30:21.539Z,17.77
2022-10-02T14:33:47.257Z,17.52
2022-10-02T14:37:26.408Z,17.13
2022-10-02T14:40:48.004Z,16.88
2022-10-02T14:43:58.166Z,16.82
2022-10-02T14:47:02.758Z,16.87
2022-10-02T14:50:14.862Z,16.88
2022-10-02T14:53:31.530Z,16.65
2022-10-02T14:56:48.828Z,16.58
2022-10-02T15:00:24.755Z,16.65
2022-10-02T15:03:57.093Z,16.57
2022-10-02T15:07:05.635Z,16.31
2022-10-02T15:10:21.929Z,16.46
2022-10-02T15:13:43.065Z,16.71
2022-10-02T15:17:16.953Z,16.84
2022-10-02T15:21:05.494Z,16.73
2022-10-02T15:24:45.045Z,16.77
2022-10-02T15:28:24.314Z,16.74
2022-10-02T15:31:42.281Z,16.89
2022-10-02T15:35:04.736Z,16.52
2022-10-02T15:38:21.424Z,16.62
2022-10-02T15:41:39.013Z,16.78
2022-10-02T15:45:16.918Z,16.89
2022-10-02T15:48:27.349Z,16.68
2022-10-02T15:51:31.892Z,16.75
2022-10-02T15:54:48.994Z,16.89
2022-10-02T15:58:12.560Z,16.75
2022-10-02T16:01:44.297Z,16.68
2022-10-02T16:04:59.378Z,16.75
2022-10-02T16:08:28.203Z,16.84
2022-10-02T16:11:57.503Z,16.73
2022-10-02T16:15:13.051Z,16.43
2022-10-02T16:18:19.373Z,16.56
2022-10-02T16:21:45.162Z,16.54
2022-10-02T16:25:10.331Z,16.65
2022-10-02T16:28:26.980Z,16.74
2022-10-02T16:31:41.990Z,16.65
2022-10-02T16:35:22.368Z,16.60
2022-10-02T16:38:36.824Z,16.24
2022-10-02T16:41:59.501Z,16.16
2022-10-02T16:45:03.997Z,15.88
2022-10-02T16:48:27.617Z,15.94
2022-10-02T16:51:41.137Z,16.03
2022-10-02T16:54:57.560Z,15.93
2022-10-02T16:58:24.443Z,15.60
2022-10-02T17:02:16.263Z,15.09
2022-10-02T17:05:34.841Z,14.85
2022-10-02T17:08:38.938Z,15.15
2022-10-02T17:12:03.732Z,14.79
2022-10-02T17:15:21.929Z,14.80
2022-10-02T17:18:44.518Z,14.82
2022-10-02T17:21:59.805Z,14.96
2022-10-02T17:25:27.060Z,14.68
2022-10-02T17:28:42.455Z,14.42
2022-10-02T17:31:51.316Z,14.67
2022-10-02T17:34:56.697Z,14.65
2022-10-02T17:38:24.214Z,14.59
2022-10-02T17:41:42.357Z,14.46
2022-10-02T17:44:52.989Z,14.33
2022-10-02T17:48:26.609Z,14.27
2022-10-02T17:52:23.487Z,14.12
2022-10-02T17:56:02.052Z,14.20
2022-10-02T17:59:35.897Z,14.24
2022-10-02T18:02:51.845Z,14.44
2022-10-02T18:05:55.962Z,14.75
2022-10-02T18:09:18.227Z,14.90
2022-10-02T18:12:55.388Z,14.96
2022-10-02T18:16:22.353Z,14.77
2022-10-02T18:19:27.722Z,14.76
2022-10-02T18:22:45.046Z,14.83
2022-10-02T18:26:05.322Z,14.81
2022-10-02T18:29:30.468Z,14.91
2022-10-02T18:33:14.451Z,14.78
2022-10-02T18:36:38.877Z,14.81
2022-10-02T18:39:42.108Z,14.68
2022-10-02T18:43:11.045Z,14.88
2022-10-02T18:46:28.374Z,14.92
2022-10-02T18:49:59.661Z,15.01
2022-10-02T18:53:24.756Z,14.70
2022-10-02T18:56:45.849Z,14.83
2022-10-02T19:00:13.645Z,14.78
2022-10-02T19:03:21.676Z,14.83
2022-10-02T19:06:33.380Z,14.94
2022-10-02T19:09:34.889Z,14.76
2022-10-02T19:12:43.460Z,14.91
2022-10-02T19:15:47.020Z,14.99
2022-10-02T19:18:48.704Z,14.94
2022-10-02T19:21:55.968Z,14.88
2022-10-02T19:25:16.075Z,14.93
2022-10-02T19:28:23.160Z,15.09
2022-10-02T19:31:28.613Z,14.90
2022-10-02T19:34:31.895Z,14.87
2022-10-02T19:37:41.519Z,14.84
2022-10-02T19:40:43.174Z,14.98
2022-10-02T19:43:58.110Z,15.09
2022-10-02T19:47:03.473Z,15.09
2022-10-02T19:50:07.572Z,14.90
2022-10-02T19:53:36.268Z,14.87
2022-10-02T19:56:43.826Z,14.92
2022-10-02T19:59:52.931Z,14.91
2022-10-02T20:02:58.894Z,15.09
2022-10-02T20:06:06.681Z,15.01
2022-10-02T20:09:19.976Z,14.98
2022-10-02T20:12:31.822Z,14.50
2022-10-02T20:16:09.554Z,14.28
2022-10-02T20:19:21.320Z,14.18
2022-10-02T20:22:48.267Z,14.39
2022-10-02T20:25:58.741Z,14.29
2022-10-02T20:29:06.623Z,14.03
2022-10-02T20:32:21.349Z,14.02
2022-10-02T20:35:34.786Z,14.20
2022-10-02T20:38:47.711Z,14.24
2022-10-02T20:42:04.504Z,14.37
2022-10-02T20:45:10.656Z,14.14
2022-10-02T20:49:06.778Z,14.28
2022-10-02T20:52:34.351Z,14.49
2022-10-02T20:55:58.936Z,14.47
2022-10-02T20:59:06.219Z,14.46
2022-10-02T21:02:40.048Z,14.45
2022-10-02T21:05:56.792Z,14.41
2022-10-02T21:09:09.203Z,14.36
2022-10-02T21:12:41.145Z,14.24
2022-10-02T21:15:55.299Z,14.24
2022-10-02T21:19:18.657Z,14.28
2022-10-02T21:22:32.429Z,14.24
2022-10-02T21:25:44.473Z,14.29
2022-10-02T21:29:12.876Z,14.19
2022-10-02T21:32:20.293Z,14.16
2022-10-02T21:35:48.747Z,14.30
2022-10-02T21:39:17.547Z,14.41
2022-10-02T21:42:37.629Z,14.36
2022-10-02T21:45:53.320Z,14.24
2022-10-02T21:49:32.843Z,14.18
2022-10-02T21:52:52.971Z,14.29
2022-10-02T21:56:28.546Z,14.51
2022-10-02T21:59:46.020Z,14.64
2022-10-02T22:03:18.528Z,14.69
2022-10-02T22:06:29.179Z,14.66
2022-10-02T22:09:42.001Z,14.58
2022-10-02T22:13:01.954Z,14.56
2022-10-02T22:16:47.279Z,14.63
2022-10-02T22:20:07.305Z,14.73
2022-10-02T22:23:59.979Z,14.75
2022-10-02T22:27:16.844Z,14.63
2022-10-02T22:30:24.343Z,14.57
2022-10-02T22:33:54.131Z,14.65
2022-10-02T22:36:58.505Z,14.67
2022-10-02T22:40:08.238Z,14.69
2022-10-02T22:43:19.542Z,14.61
2022-10-02T22:46:31.470Z,14.68
2022-10-02T22:49:46.185Z,14.73
2022-10-02T22:53:07.456Z,14.74
2022-10-02T22:56:31.984Z,14.65
2022-10-02T23:00:11.032Z,14.59
2022-10-02T23:03:39.136Z,14.60
2022-10-02T23:06:55.525Z,14.59
2022-10-02T23:09:59.979Z,14.65
2022-10-02T23:13:07.249Z,14.63
2022-10-02T23:16:48.091Z,14.59
2022-10-02T23:20:12.017Z,14.29
2022-10-02T23:23:28.328Z,14.17
2022-10-02T23:26:43.528Z,14.06
2022-10-02T23:29:56.796Z,14.08
2022-10-02T23:33:04.972Z,14.09
2022-10-02T23:36:22.243Z,14.20
2022-10-02T23:39:35.543Z,14.18
2022-10-02T23:42:43.881Z,14.31
2022-10-02T23:46:02.555Z,14.30
2022-10-02T23:49:04.336Z,14.06
2022-10-02T23:52:35.465Z,14.02
2022-10-02T23:55:45.790Z,14.05
2022-10-02T23:59:02.388Z,14.06
